sensor_id;sensor_type;location;lat;lon;timestamp;P1;durP1;ratioP1;P2;durP2;ratioP2
69485;SDS011;56677;51.710;5.366;2022-09-03T00:01:23;2.97;;;1.60;;
69485;SDS011;56677;51.710;5.366;2022-09-03T00:03:56;4.35;;;2.03;;
69485;SDS011;56677;51.710;5.366;2022-09-03T00:06:30;3.55;;;1.67;;
69485;SDS011;56677;51.710;5.366;2022-09-03T00:09:04;3.67;;;1.90;;
69485;SDS011;56677;51.710;5.366;2022-09-03T00:11:30;3.20;;;1.90;;
69485;SDS011;56677;51.710;5.366;2022-09-03T00:14:02;3.35;;;2.00;;
69485;SDS011;56677;51.710;5.366;2022-09-03T00:16:30;3.75;;;1.80;;
69485;SDS011;56677;51.710;5.366;2022-09-03T00:18:58;4.05;;;2.08;;
69485;SDS011;56677;51.710;5.366;2022-09-03T00:21:31;2.70;;;1.55;;
69485;SDS011;56677;51.710;5.366;2022-09-03T00:23:59;3.20;;;1.70;;
69485;SDS011;56677;51.710;5.366;2022-09-03T00:26:27;4.50;;;2.00;;
69485;SDS011;56677;51.710;5.366;2022-09-03T00:29:13;3.28;;;2.00;;
69485;SDS011;56677;51.710;5.366;2022-09-03T00:31:41;3.58;;;1.88;;
69485;SDS011;56677;51.710;5.366;2022-09-03T00:34:09;4.03;;;2.00;;
69485;SDS011;56677;51.710;5.366;2022-09-03T00:36:39;2.93;;;2.00;;
69485;SDS011;56677;51.710;5.366;2022-09-03T00:39:05;4.03;;;2.10;;
69485;SDS011;56677;51.710;5.366;2022-09-03T00:41:32;3.72;;;2.28;;
69485;SDS011;56677;51.710;5.366;2022-09-03T00:56:37;4.15;;;2.20;;
69485;SDS011;56677;51.710;5.366;2022-09-03T01:02:00;3.72;;;2.10;;
69485;SDS011;56677;51.710;5.366;2022-09-03T01:04:44;3.03;;;1.93;;
69485;SDS011;56677;51.710;5.366;2022-09-03T01:07:17;3.10;;;2.00;;
69485;SDS011;56677;51.710;5.366;2022-09-03T01:09:50;3.33;;;2.15;;
69485;SDS011;56677;51.710;5.366;2022-09-03T01:15:08;2.63;;;1.58;;
69485;SDS011;56677;51.710;5.366;2022-09-03T01:30:03;3.40;;;1.92;;
69485;SDS011;56677;51.710;5.366;2022-09-03T01:35:33;3.05;;;1.67;;
69485;SDS011;56677;51.710;5.366;2022-09-03T01:43:39;3.30;;;2.05;;
69485;SDS011;56677;51.710;5.366;2022-09-03T01:46:09;3.53;;;1.90;;
69485;SDS011;56677;51.710;5.366;2022-09-03T01:48:41;4.05;;;2.20;;
69485;SDS011;56677;51.710;5.366;2022-09-03T01:53:50;3.45;;;2.00;;
69485;SDS011;56677;51.710;5.366;2022-09-03T01:59:04;3.30;;;2.00;;
69485;SDS011;56677;51.710;5.366;2022-09-03T02:01:41;3.83;;;1.58;;
69485;SDS011;56677;51.710;5.366;2022-09-03T02:04:18;4.50;;;2.13;;
69485;SDS011;56677;51.710;5.366;2022-09-03T02:06:44;2.65;;;1.77;;
69485;SDS011;56677;51.710;5.366;2022-09-03T02:09:09;3.33;;;1.87;;
69485;SDS011;56677;51.710;5.366;2022-09-03T02:11:34;3.25;;;1.60;;
69485;SDS011;56677;51.710;5.366;2022-09-03T02:13:59;3.60;;;2.10;;
69485;SDS011;56677;51.710;5.366;2022-09-03T02:16:26;2.53;;;1.83;;
69485;SDS011;56677;51.710;5.366;2022-09-03T02:19:00;3.50;;;2.13;;
69485;SDS011;56677;51.710;5.366;2022-09-03T02:21:26;2.90;;;2.20;;
69485;SDS011;56677;51.710;5.366;2022-09-03T02:23:53;4.05;;;2.33;;
69485;SDS011;56677;51.710;5.366;2022-09-03T02:26:20;3.88;;;2.08;;
69485;SDS011;56677;51.710;5.366;2022-09-03T02:28:46;3.45;;;1.90;;
69485;SDS011;56677;51.710;5.366;2022-09-03T02:31:11;3.13;;;2.10;;
69485;SDS011;56677;51.710;5.366;2022-09-03T02:33:37;4.03;;;2.28;;
69485;SDS011;56677;51.710;5.366;2022-09-03T02:36:03;3.72;;;2.03;;
69485;SDS011;56677;51.710;5.366;2022-09-03T02:38:29;3.33;;;1.70;;
69485;SDS011;56677;51.710;5.366;2022-09-03T02:40:54;3.42;;;2.08;;
69485;SDS011;56677;51.710;5.366;2022-09-03T02:43:24;3.78;;;2.10;;
69485;SDS011;56677;51.710;5.366;2022-09-03T02:45:51;4.20;;;2.00;;
69485;SDS011;56677;51.710;5.366;2022-09-03T02:48:17;4.00;;;2.20;;
69485;SDS011;56677;51.710;5.366;2022-09-03T02:50:44;3.20;;;2.03;;
69485;SDS011;56677;51.710;5.366;2022-09-03T02:53:09;5.03;;;2.00;;
69485;SDS011;56677;51.710;5.366;2022-09-03T02:55:34;3.53;;;2.20;;
69485;SDS011;56677;51.710;5.366;2022-09-03T02:57:59;4.27;;;2.13;;
69485;SDS011;56677;51.710;5.366;2022-09-03T03:00:24;4.65;;;2.25;;
69485;SDS011;56677;51.710;5.366;2022-09-03T03:02:50;3.47;;;2.03;;
69485;SDS011;56677;51.710;5.366;2022-09-03T03:05:17;3.03;;;1.60;;
69485;SDS011;56677;51.710;5.366;2022-09-03T03:07:45;3.45;;;1.60;;
69485;SDS011;56677;51.710;5.366;2022-09-03T03:10:10;3.85;;;1.95;;
69485;SDS011;56677;51.710;5.366;2022-09-03T03:12:35;5.18;;;1.90;;
69485;SDS011;56677;51.710;5.366;2022-09-03T03:15:00;3.17;;;2.23;;
69485;SDS011;56677;51.710;5.366;2022-09-03T03:17:26;4.30;;;2.50;;
69485;SDS011;56677;51.710;5.366;2022-09-03T03:19:51;3.65;;;2.20;;
69485;SDS011;56677;51.710;5.366;2022-09-03T03:22:16;3.60;;;2.20;;
69485;SDS011;56677;51.710;5.366;2022-09-03T03:24:41;3.97;;;2.00;;
69485;SDS011;56677;51.710;5.366;2022-09-03T03:27:06;4.22;;;2.30;;
69485;SDS011;56677;51.710;5.366;2022-09-03T03:29:31;4.20;;;2.03;;
69485;SDS011;56677;51.710;5.366;2022-09-03T03:31:56;2.70;;;2.03;;
69485;SDS011;56677;51.710;5.366;2022-09-03T03:34:21;3.95;;;1.73;;
69485;SDS011;56677;51.710;5.366;2022-09-03T03:36:46;3.20;;;1.70;;
69485;SDS011;56677;51.710;5.366;2022-09-03T03:39:11;3.67;;;2.23;;
69485;SDS011;56677;51.710;5.366;2022-09-03T03:41:37;4.53;;;2.03;;
69485;SDS011;56677;51.710;5.366;2022-09-03T03:44:03;4.38;;;1.98;;
69485;SDS011;56677;51.710;5.366;2022-09-03T03:46:35;3.50;;;1.70;;
69485;SDS011;56677;51.710;5.366;2022-09-03T03:49:01;3.63;;;1.70;;
69485;SDS011;56677;51.710;5.366;2022-09-03T03:51:26;3.17;;;1.80;;
69485;SDS011;56677;51.710;5.366;2022-09-03T03:53:55;3.90;;;1.97;;
69485;SDS011;56677;51.710;5.366;2022-09-03T03:56:20;3.53;;;2.00;;
69485;SDS011;56677;51.710;5.366;2022-09-03T03:58:45;4.17;;;2.13;;
69485;SDS011;56677;51.710;5.366;2022-09-03T04:01:14;4.68;;;2.03;;
69485;SDS011;56677;51.710;5.366;2022-09-03T04:03:40;3.55;;;2.00;;
69485;SDS011;56677;51.710;5.366;2022-09-03T04:06:05;2.97;;;1.70;;
69485;SDS011;56677;51.710;5.366;2022-09-03T04:08:35;4.05;;;1.80;;
69485;SDS011;56677;51.710;5.366;2022-09-03T04:11:01;4.22;;;1.98;;
69485;SDS011;56677;51.710;5.366;2022-09-03T04:13:33;2.50;;;1.60;;
69485;SDS011;56677;51.710;5.366;2022-09-03T04:15:59;3.53;;;2.00;;
69485;SDS011;56677;51.710;5.366;2022-09-03T04:18:24;3.95;;;1.98;;
69485;SDS011;56677;51.710;5.366;2022-09-03T04:20:49;3.47;;;2.15;;
69485;SDS011;56677;51.710;5.366;2022-09-03T04:23:14;4.20;;;1.70;;
69485;SDS011;56677;51.710;5.366;2022-09-03T04:25:39;3.33;;;2.20;;
69485;SDS011;56677;51.710;5.366;2022-09-03T04:28:04;3.08;;;1.98;;
69485;SDS011;56677;51.710;5.366;2022-09-03T04:30:29;3.78;;;1.90;;
69485;SDS011;56677;51.710;5.366;2022-09-03T04:32:54;4.85;;;2.13;;
69485;SDS011;56677;51.710;5.366;2022-09-03T04:35:20;3.15;;;1.92;;
69485;SDS011;56677;51.710;5.366;2022-09-03T04:37:46;2.97;;;1.60;;
69485;SDS011;56677;51.710;5.366;2022-09-03T04:40:11;4.47;;;2.10;;
69485;SDS011;56677;51.710;5.366;2022-09-03T04:42:36;3.90;;;1.63;;
69485;SDS011;56677;51.710;5.366;2022-09-03T04:45:01;3.15;;;2.13;;
69485;SDS011;56677;51.710;5.366;2022-09-03T04:47:26;4.75;;;2.65;;
69485;SDS011;56677;51.710;5.366;2022-09-03T04:49:51;4.82;;;2.15;;
69485;SDS011;56677;51.710;5.366;2022-09-03T04:52:17;3.35;;;2.00;;
69485;SDS011;56677;51.710;5.366;2022-09-03T04:54:42;4.07;;;1.98;;
69485;SDS011;56677;51.710;5.366;2022-09-03T04:57:07;4.93;;;1.87;;
69485;SDS011;56677;51.710;5.366;2022-09-03T04:59:32;3.13;;;1.67;;
69485;SDS011;56677;51.710;5.366;2022-09-03T05:01:57;4.43;;;2.05;;
69485;SDS011;56677;51.710;5.366;2022-09-03T05:04:22;3.40;;;2.05;;
69485;SDS011;56677;51.710;5.366;2022-09-03T05:06:47;3.65;;;2.13;;
69485;SDS011;56677;51.710;5.366;2022-09-03T05:09:12;3.23;;;2.03;;
69485;SDS011;56677;51.710;5.366;2022-09-03T05:11:37;4.28;;;2.17;;
69485;SDS011;56677;51.710;5.366;2022-09-03T05:14:03;3.78;;;2.05;;
69485;SDS011;56677;51.710;5.366;2022-09-03T05:16:28;5.70;;;2.07;;
69485;SDS011;56677;51.710;5.366;2022-09-03T05:18:54;3.73;;;1.80;;
69485;SDS011;56677;51.710;5.366;2022-09-03T05:21:20;4.13;;;1.55;;
69485;SDS011;56677;51.710;5.366;2022-09-03T05:23:46;4.20;;;1.90;;
69485;SDS011;56677;51.710;5.366;2022-09-03T05:26:15;3.93;;;2.10;;
69485;SDS011;56677;51.710;5.366;2022-09-03T05:28:41;4.60;;;2.10;;
69485;SDS011;56677;51.710;5.366;2022-09-03T05:31:10;3.85;;;1.83;;
69485;SDS011;56677;51.710;5.366;2022-09-03T05:33:36;3.53;;;1.92;;
69485;SDS011;56677;51.710;5.366;2022-09-03T05:36:06;4.63;;;2.17;;
69485;SDS011;56677;51.710;5.366;2022-09-03T05:38:31;3.63;;;1.88;;
69485;SDS011;56677;51.710;5.366;2022-09-03T05:40:57;4.53;;;2.40;;
69485;SDS011;56677;51.710;5.366;2022-09-03T05:43:22;4.10;;;2.10;;
69485;SDS011;56677;51.710;5.366;2022-09-03T05:45:48;4.80;;;1.67;;
69485;SDS011;56677;51.710;5.366;2022-09-03T05:48:13;3.88;;;1.88;;
69485;SDS011;56677;51.710;5.366;2022-09-03T05:50:38;4.38;;;1.98;;
69485;SDS011;56677;51.710;5.366;2022-09-03T05:53:03;3.63;;;1.33;;
69485;SDS011;56677;51.710;5.366;2022-09-03T05:55:28;3.22;;;1.98;;
69485;SDS011;56677;51.710;5.366;2022-09-03T05:57:53;4.40;;;1.87;;
69485;SDS011;56677;51.710;5.366;2022-09-03T06:00:19;4.00;;;1.90;;
69485;SDS011;56677;51.710;5.366;2022-09-03T06:02:50;6.23;;;2.10;;
69485;SDS011;56677;51.710;5.366;2022-09-03T06:05:15;5.80;;;2.00;;
69485;SDS011;56677;51.710;5.366;2022-09-03T06:07:40;4.95;;;1.75;;
69485;SDS011;56677;51.710;5.366;2022-09-03T06:10:05;3.95;;;2.03;;
69485;SDS011;56677;51.710;5.366;2022-09-03T06:12:31;3.70;;;1.83;;
69485;SDS011;56677;51.710;5.366;2022-09-03T06:14:56;5.70;;;1.95;;
69485;SDS011;56677;51.710;5.366;2022-09-03T06:17:21;4.93;;;2.05;;
69485;SDS011;56677;51.710;5.366;2022-09-03T06:19:46;4.80;;;2.30;;
69485;SDS011;56677;51.710;5.366;2022-09-03T06:22:11;3.10;;;1.52;;
69485;SDS011;56677;51.710;5.366;2022-09-03T06:24:36;4.53;;;1.70;;
69485;SDS011;56677;51.710;5.366;2022-09-03T06:27:01;5.03;;;1.67;;
69485;SDS011;56677;51.710;5.366;2022-09-03T06:29:26;8.00;;;2.63;;
69485;SDS011;56677;51.710;5.366;2022-09-03T06:31:51;4.93;;;1.90;;
69485;SDS011;56677;51.710;5.366;2022-09-03T06:34:16;5.40;;;1.95;;
69485;SDS011;56677;51.710;5.366;2022-09-03T06:36:42;5.15;;;1.80;;
69485;SDS011;56677;51.710;5.366;2022-09-03T06:39:07;4.72;;;1.85;;
69485;SDS011;56677;51.710;5.366;2022-09-03T06:41:32;2.92;;;1.67;;
69485;SDS011;56677;51.710;5.366;2022-09-03T06:43:58;4.17;;;1.97;;
69485;SDS011;56677;51.710;5.366;2022-09-03T06:46:23;6.10;;;1.83;;
69485;SDS011;56677;51.710;5.366;2022-09-03T06:48:49;3.80;;;1.92;;
69485;SDS011;56677;51.710;5.366;2022-09-03T06:51:15;4.53;;;1.60;;
69485;SDS011;56677;51.710;5.366;2022-09-03T06:53:42;8.13;;;2.25;;
69485;SDS011;56677;51.710;5.366;2022-09-03T06:56:08;7.35;;;2.08;;
69485;SDS011;56677;51.710;5.366;2022-09-03T06:58:37;5.07;;;2.20;;
69485;SDS011;56677;51.710;5.366;2022-09-03T07:01:03;8.43;;;2.15;;
69485;SDS011;56677;51.710;5.366;2022-09-03T07:03:29;6.10;;;1.83;;
69485;SDS011;56677;51.710;5.366;2022-09-03T07:05:58;7.22;;;2.50;;
69485;SDS011;56677;51.710;5.366;2022-09-03T07:08:24;10.30;;;2.20;;
69485;SDS011;56677;51.710;5.366;2022-09-03T07:10:49;2.88;;;1.55;;
69485;SDS011;56677;51.710;5.366;2022-09-03T07:13:14;7.23;;;2.20;;
69485;SDS011;56677;51.710;5.366;2022-09-03T07:15:39;5.13;;;1.73;;
69485;SDS011;56677;51.710;5.366;2022-09-03T07:18:04;4.25;;;1.60;;
69485;SDS011;56677;51.710;5.366;2022-09-03T07:20:29;4.45;;;2.00;;
69485;SDS011;56677;51.710;5.366;2022-09-03T07:22:54;5.10;;;1.77;;
69485;SDS011;56677;51.710;5.366;2022-09-03T07:25:19;4.20;;;1.70;;
69485;SDS011;56677;51.710;5.366;2022-09-03T07:27:44;5.93;;;1.83;;
69485;SDS011;56677;51.710;5.366;2022-09-03T07:30:10;3.40;;;1.70;;
69485;SDS011;56677;51.710;5.366;2022-09-03T07:32:35;4.43;;;1.90;;
69485;SDS011;56677;51.710;5.366;2022-09-03T07:35:00;7.68;;;2.00;;
69485;SDS011;56677;51.710;5.366;2022-09-03T07:37:25;4.60;;;2.13;;
69485;SDS011;56677;51.710;5.366;2022-09-03T07:39:51;4.95;;;2.08;;
69485;SDS011;56677;51.710;5.366;2022-09-03T07:42:16;6.57;;;2.00;;
69485;SDS011;56677;51.710;5.366;2022-09-03T07:44:41;4.13;;;2.08;;
69485;SDS011;56677;51.710;5.366;2022-09-03T07:47:06;6.57;;;2.60;;
69485;SDS011;56677;51.710;5.366;2022-09-03T07:49:31;5.00;;;1.58;;
69485;SDS011;56677;51.710;5.366;2022-09-03T07:51:56;9.20;;;2.15;;
69485;SDS011;56677;51.710;5.366;2022-09-03T07:54:21;7.15;;;2.15;;
69485;SDS011;56677;51.710;5.366;2022-09-03T07:56:46;6.43;;;2.37;;
69485;SDS011;56677;51.710;5.366;2022-09-03T07:59:11;8.02;;;1.77;;
69485;SDS011;56677;51.710;5.366;2022-09-03T08:01:37;3.30;;;1.98;;
69485;SDS011;56677;51.710;5.366;2022-09-03T08:04:02;4.10;;;1.80;;
69485;SDS011;56677;51.710;5.366;2022-09-03T08:06:28;6.27;;;1.80;;
69485;SDS011;56677;51.710;5.366;2022-09-03T08:08:54;4.73;;;2.17;;
69485;SDS011;56677;51.710;5.366;2022-09-03T08:11:19;6.35;;;1.98;;
69485;SDS011;56677;51.710;5.366;2022-09-03T08:13:45;6.57;;;2.23;;
69485;SDS011;56677;51.710;5.366;2022-09-03T08:16:11;8.05;;;2.30;;
69485;SDS011;56677;51.710;5.366;2022-09-03T08:18:37;6.65;;;2.10;;
69485;SDS011;56677;51.710;5.366;2022-09-03T08:21:03;3.60;;;1.80;;
69485;SDS011;56677;51.710;5.366;2022-09-03T08:23:28;4.00;;;1.90;;
69485;SDS011;56677;51.710;5.366;2022-09-03T08:25:57;5.47;;;1.80;;
69485;SDS011;56677;51.710;5.366;2022-09-03T08:28:23;5.72;;;1.80;;
69485;SDS011;56677;51.710;5.366;2022-09-03T08:30:48;6.78;;;2.33;;
69485;SDS011;56677;51.710;5.366;2022-09-03T08:33:13;4.50;;;2.10;;
69485;SDS011;56677;51.710;5.366;2022-09-03T08:35:38;5.53;;;2.17;;
69485;SDS011;56677;51.710;5.366;2022-09-03T08:38:03;4.83;;;2.60;;
69485;SDS011;56677;51.710;5.366;2022-09-03T08:40:28;5.45;;;2.13;;
69485;SDS011;56677;51.710;5.366;2022-09-03T08:43:04;5.95;;;2.05;;
69485;SDS011;56677;51.710;5.366;2022-09-03T08:45:33;6.50;;;2.20;;
69485;SDS011;56677;51.710;5.366;2022-09-03T08:48:04;7.97;;;2.10;;
69485;SDS011;56677;51.710;5.366;2022-09-03T08:50:31;5.38;;;2.15;;
69485;SDS011;56677;51.710;5.366;2022-09-03T08:53:14;3.80;;;2.00;;
69485;SDS011;56677;51.710;5.366;2022-09-03T08:55:55;6.40;;;2.28;;
69485;SDS011;56677;51.710;5.366;2022-09-03T08:58:25;5.45;;;1.90;;
69485;SDS011;56677;51.710;5.366;2022-09-03T09:13:55;6.50;;;2.20;;
69485;SDS011;56677;51.710;5.366;2022-09-03T09:19:05;5.10;;;1.60;;
69485;SDS011;56677;51.710;5.366;2022-09-03T09:21:36;5.18;;;1.73;;
69485;SDS011;56677;51.710;5.366;2022-09-03T09:24:02;6.28;;;1.67;;
69485;SDS011;56677;51.710;5.366;2022-09-03T09:26:28;7.60;;;2.00;;
69485;SDS011;56677;51.710;5.366;2022-09-03T09:28:57;7.60;;;2.07;;
69485;SDS011;56677;51.710;5.366;2022-09-03T09:31:23;4.60;;;1.65;;
69485;SDS011;56677;51.710;5.366;2022-09-03T09:33:48;7.03;;;2.30;;
69485;SDS011;56677;51.710;5.366;2022-09-03T09:36:15;4.37;;;2.07;;
69485;SDS011;56677;51.710;5.366;2022-09-03T09:38:41;4.97;;;1.95;;
69485;SDS011;56677;51.710;5.366;2022-09-03T09:41:10;5.32;;;1.80;;
69485;SDS011;56677;51.710;5.366;2022-09-03T09:43:35;3.58;;;1.80;;
69485;SDS011;56677;51.710;5.366;2022-09-03T09:46:05;5.07;;;2.15;;
69485;SDS011;56677;51.710;5.366;2022-09-03T09:48:31;6.38;;;1.98;;
69485;SDS011;56677;51.710;5.366;2022-09-03T09:51:19;4.40;;;2.23;;
69485;SDS011;56677;51.710;5.366;2022-09-03T09:53:45;7.05;;;1.80;;
69485;SDS011;56677;51.710;5.366;2022-09-03T09:56:20;7.73;;;1.97;;
69485;SDS011;56677;51.710;5.366;2022-09-03T09:58:45;7.40;;;2.25;;
69485;SDS011;56677;51.710;5.366;2022-09-03T10:01:17;6.15;;;2.15;;
69485;SDS011;56677;51.710;5.366;2022-09-03T10:03:47;4.40;;;2.45;;
69485;SDS011;56677;51.710;5.366;2022-09-03T10:06:13;5.13;;;2.38;;
69485;SDS011;56677;51.710;5.366;2022-09-03T10:08:39;6.23;;;2.50;;
69485;SDS011;56677;51.710;5.366;2022-09-03T10:11:04;6.70;;;2.50;;
69485;SDS011;56677;51.710;5.366;2022-09-03T10:13:33;5.35;;;2.10;;
69485;SDS011;56677;51.710;5.366;2022-09-03T10:16:19;5.43;;;2.33;;
69485;SDS011;56677;51.710;5.366;2022-09-03T10:21:19;7.47;;;2.83;;
69485;SDS011;56677;51.710;5.366;2022-09-03T10:23:49;7.40;;;3.13;;
69485;SDS011;56677;51.710;5.366;2022-09-03T10:26:15;9.13;;;4.57;;
69485;SDS011;56677;51.710;5.366;2022-09-03T10:28:42;10.27;;;3.88;;
69485;SDS011;56677;51.710;5.366;2022-09-03T10:31:12;18.33;;;8.27;;
69485;SDS011;56677;51.710;5.366;2022-09-03T10:33:43;24.27;;;9.32;;
69485;SDS011;56677;51.710;5.366;2022-09-03T10:36:18;18.90;;;8.57;;
69485;SDS011;56677;51.710;5.366;2022-09-03T10:38:47;19.65;;;9.07;;
69485;SDS011;56677;51.710;5.366;2022-09-03T10:41:17;23.55;;;11.23;;
69485;SDS011;56677;51.710;5.366;2022-09-03T10:43:49;25.08;;;12.02;;
69485;SDS011;56677;51.710;5.366;2022-09-03T10:46:27;26.52;;;13.23;;
69485;SDS011;56677;51.710;5.366;2022-09-03T10:51:19;26.98;;;13.98;;
69485;SDS011;56677;51.710;5.366;2022-09-03T10:57:09;25.40;;;13.40;;
69485;SDS011;56677;51.710;5.366;2022-09-03T11:04:38;18.75;;;9.50;;
69485;SDS011;56677;51.710;5.366;2022-09-03T11:07:08;18.20;;;9.93;;
69485;SDS011;56677;51.710;5.366;2022-09-03T11:12:05;19.17;;;9.55;;
69485;SDS011;56677;51.710;5.366;2022-09-03T11:14:39;23.83;;;10.30;;
69485;SDS011;56677;51.710;5.366;2022-09-03T11:17:08;30.03;;;12.80;;
69485;SDS011;56677;51.710;5.366;2022-09-03T11:19:40;37.50;;;17.38;;
69485;SDS011;56677;51.710;5.366;2022-09-03T11:22:06;42.38;;;18.52;;
69485;SDS011;56677;51.710;5.366;2022-09-03T11:24:33;43.53;;;19.63;;
69485;SDS011;56677;51.710;5.366;2022-09-03T11:29:49;38.72;;;16.35;;
69485;SDS011;56677;51.710;5.366;2022-09-03T11:32:17;42.83;;;17.08;;
69485;SDS011;56677;51.710;5.366;2022-09-03T11:34:45;60.23;;;23.57;;
69485;SDS011;56677;51.710;5.366;2022-09-03T11:37:18;67.45;;;22.70;;
69485;SDS011;56677;51.710;5.366;2022-09-03T11:39:44;67.45;;;22.63;;
69485;SDS011;56677;51.710;5.366;2022-09-03T11:42:27;54.38;;;19.67;;
69485;SDS011;56677;51.710;5.366;2022-09-03T11:44:58;52.53;;;17.17;;
69485;SDS011;56677;51.710;5.366;2022-09-03T11:47:24;44.10;;;14.90;;
69485;SDS011;56677;51.710;5.366;2022-09-03T11:50:04;43.13;;;15.07;;
69485;SDS011;56677;51.710;5.366;2022-09-03T11:52:30;43.45;;;16.42;;
69485;SDS011;56677;51.710;5.366;2022-09-03T11:54:55;33.77;;;13.97;;
69485;SDS011;56677;51.710;5.366;2022-09-03T11:57:22;34.17;;;13.45;;
69485;SDS011;56677;51.710;5.366;2022-09-03T11:59:49;34.17;;;13.40;;
69485;SDS011;56677;51.710;5.366;2022-09-03T12:02:27;31.65;;;12.93;;
69485;SDS011;56677;51.710;5.366;2022-09-03T12:07:36;46.42;;;18.50;;
69485;SDS011;56677;51.710;5.366;2022-09-03T12:10:11;46.83;;;19.05;;
69485;SDS011;56677;51.710;5.366;2022-09-03T12:17:57;72.57;;;30.50;;
69485;SDS011;56677;51.710;5.366;2022-09-03T12:20:26;72.05;;;28.75;;
69485;SDS011;56677;51.710;5.366;2022-09-03T12:22:51;44.97;;;18.70;;
69485;SDS011;56677;51.710;5.366;2022-09-03T12:25:16;51.20;;;21.42;;
69485;SDS011;56677;51.710;5.366;2022-09-03T12:27:42;42.72;;;18.45;;
69485;SDS011;56677;51.710;5.366;2022-09-03T12:30:16;33.88;;;14.57;;
69485;SDS011;56677;51.710;5.366;2022-09-03T12:32:41;37.03;;;13.83;;
69485;SDS011;56677;51.710;5.366;2022-09-03T12:35:13;23.53;;;11.00;;
69485;SDS011;56677;51.710;5.366;2022-09-03T12:37:40;18.58;;;8.90;;
69485;SDS011;56677;51.710;5.366;2022-09-03T12:40:14;19.15;;;8.65;;
69485;SDS011;56677;51.710;5.366;2022-09-03T12:42:40;48.05;;;22.65;;
69485;SDS011;56677;51.710;5.366;2022-09-03T12:45:06;32.25;;;15.75;;
69485;SDS011;56677;51.710;5.366;2022-09-03T12:47:36;30.30;;;14.45;;
69485;SDS011;56677;51.710;5.366;2022-09-03T12:50:09;27.13;;;14.27;;
69485;SDS011;56677;51.710;5.366;2022-09-03T12:52:36;26.33;;;13.38;;
69485;SDS011;56677;51.710;5.366;2022-09-03T12:55:04;27.08;;;12.68;;
69485;SDS011;56677;51.710;5.366;2022-09-03T12:57:31;26.77;;;12.77;;
69485;SDS011;56677;51.710;5.366;2022-09-03T12:59:58;29.77;;;14.63;;
69485;SDS011;56677;51.710;5.366;2022-09-03T13:02:29;29.13;;;13.03;;
69485;SDS011;56677;51.710;5.366;2022-09-03T13:04:59;23.02;;;10.82;;
69485;SDS011;56677;51.710;5.366;2022-09-03T13:07:28;18.87;;;9.27;;
69485;SDS011;56677;51.710;5.366;2022-09-03T13:09:58;20.00;;;8.45;;
69485;SDS011;56677;51.710;5.366;2022-09-03T13:12:28;12.65;;;5.95;;
69485;SDS011;56677;51.710;5.366;2022-09-03T13:14:53;10.55;;;5.07;;
69485;SDS011;56677;51.710;5.366;2022-09-03T13:17:22;10.40;;;3.78;;
69485;SDS011;56677;51.710;5.366;2022-09-03T13:28:07;9.85;;;2.70;;
69485;SDS011;56677;51.710;5.366;2022-09-03T13:30:46;8.75;;;3.28;;
69485;SDS011;56677;51.710;5.366;2022-09-03T13:43:36;5.35;;;2.80;;
69485;SDS011;56677;51.710;5.366;2022-09-03T13:46:06;9.73;;;3.70;;
69485;SDS011;56677;51.710;5.366;2022-09-03T13:48:36;6.60;;;2.93;;
69485;SDS011;56677;51.710;5.366;2022-09-03T13:56:22;7.75;;;3.28;;
69485;SDS011;56677;51.710;5.366;2022-09-03T13:58:51;14.95;;;3.45;;
69485;SDS011;56677;51.710;5.366;2022-09-03T14:04:01;7.50;;;2.95;;
69485;SDS011;56677;51.710;5.366;2022-09-03T14:06:39;6.60;;;2.90;;
69485;SDS011;56677;51.710;5.366;2022-09-03T14:09:18;7.63;;;3.05;;
69485;SDS011;56677;51.710;5.366;2022-09-03T14:12:04;7.18;;;2.78;;
69485;SDS011;56677;51.710;5.366;2022-09-03T14:22:11;4.63;;;2.67;;
69485;SDS011;56677;51.710;5.366;2022-09-03T14:27:12;6.43;;;1.87;;
69485;SDS011;56677;51.710;5.366;2022-09-03T14:29:37;8.03;;;2.00;;
69485;SDS011;56677;51.710;5.366;2022-09-03T14:32:09;6.90;;;2.20;;
69485;SDS011;56677;51.710;5.366;2022-09-03T14:34:40;8.37;;;2.00;;
69485;SDS011;56677;51.710;5.366;2022-09-03T14:39:54;7.95;;;2.13;;
69485;SDS011;56677;51.710;5.366;2022-09-03T14:42:22;5.18;;;1.88;;
69485;SDS011;56677;51.710;5.366;2022-09-03T15:07:23;3.67;;;2.10;;
69485;SDS011;56677;51.710;5.366;2022-09-03T15:10:01;5.90;;;2.13;;
69485;SDS011;56677;51.710;5.366;2022-09-03T15:12:34;4.10;;;1.70;;
69485;SDS011;56677;51.710;5.366;2022-09-03T15:15:04;2.70;;;1.60;;
69485;SDS011;56677;51.710;5.366;2022-09-03T15:28:14;6.03;;;1.98;;
69485;SDS011;56677;51.710;5.366;2022-09-03T15:30:19;3.93;;;2.20;;
69485;SDS011;56677;51.710;5.366;2022-09-03T15:35:22;6.68;;;3.22;;
69485;SDS011;56677;51.710;5.366;2022-09-03T15:37:54;7.25;;;4.40;;
69485;SDS011;56677;51.710;5.366;2022-09-03T15:40:34;13.98;;;7.75;;
69485;SDS011;56677;51.710;5.366;2022-09-03T15:48:28;9.38;;;6.15;;
69485;SDS011;56677;51.710;5.366;2022-09-03T15:51:05;12.00;;;5.82;;
69485;SDS011;56677;51.710;5.366;2022-09-03T15:53:38;42.25;;;17.23;;
69485;SDS011;56677;51.710;5.366;2022-09-03T15:56:06;35.20;;;19.15;;
69485;SDS011;56677;51.710;5.366;2022-09-03T15:58:40;32.47;;;15.90;;
69485;SDS011;56677;51.710;5.366;2022-09-03T16:01:18;26.08;;;14.93;;
69485;SDS011;56677;51.710;5.366;2022-09-03T16:03:54;24.90;;;15.10;;
69485;SDS011;56677;51.710;5.366;2022-09-03T16:08:52;18.25;;;11.82;;
69485;SDS011;56677;51.710;5.366;2022-09-03T16:11:21;15.00;;;10.37;;
69485;SDS011;56677;51.710;5.366;2022-09-03T16:21:45;8.63;;;5.05;;
69485;SDS011;56677;51.710;5.366;2022-09-03T16:24:30;8.57;;;4.43;;
69485;SDS011;56677;51.710;5.366;2022-09-03T16:29:41;7.55;;;4.75;;
69485;SDS011;56677;51.710;5.366;2022-09-03T16:32:24;11.35;;;8.88;;
69485;SDS011;56677;51.710;5.366;2022-09-03T16:44:38;9.73;;;7.88;;
69485;SDS011;56677;51.710;5.366;2022-09-03T16:47:07;9.27;;;7.25;;
69485;SDS011;56677;51.710;5.366;2022-09-03T16:49:39;7.95;;;6.55;;
69485;SDS011;56677;51.710;5.366;2022-09-03T16:52:11;10.68;;;6.22;;
69485;SDS011;56677;51.710;5.366;2022-09-03T16:55:02;10.90;;;6.90;;
69485;SDS011;56677;51.710;5.366;2022-09-03T17:00:07;13.98;;;8.77;;
69485;SDS011;56677;51.710;5.366;2022-09-03T17:07:55;14.67;;;8.50;;
69485;SDS011;56677;51.710;5.366;2022-09-03T17:10:35;11.23;;;7.22;;
69485;SDS011;56677;51.710;5.366;2022-09-03T17:18:05;13.80;;;9.15;;
69485;SDS011;56677;51.710;5.366;2022-09-03T17:23:30;13.73;;;10.73;;
69485;SDS011;56677;51.710;5.366;2022-09-03T17:31:22;12.80;;;10.73;;
69485;SDS011;56677;51.710;5.366;2022-09-03T17:34:04;12.65;;;9.80;;
69485;SDS011;56677;51.710;5.366;2022-09-03T17:36:36;12.00;;;9.87;;
69485;SDS011;56677;51.710;5.366;2022-09-03T17:49:20;9.35;;;6.13;;
69485;SDS011;56677;51.710;5.366;2022-09-03T17:56:55;8.32;;;5.07;;
69485;SDS011;56677;51.710;5.366;2022-09-03T18:04:43;5.60;;;3.20;;
69485;SDS011;56677;51.710;5.366;2022-09-03T18:12:05;14.25;;;7.85;;
69485;SDS011;56677;51.710;5.366;2022-09-03T18:14:48;12.57;;;6.03;;
69485;SDS011;56677;51.710;5.366;2022-09-03T18:19:49;13.20;;;5.43;;
69485;SDS011;56677;51.710;5.366;2022-09-03T18:22:16;16.88;;;5.50;;
69485;SDS011;56677;51.710;5.366;2022-09-03T18:24:52;12.60;;;6.07;;
69485;SDS011;56677;51.710;5.366;2022-09-03T18:30:14;32.25;;;16.90;;
69485;SDS011;56677;51.710;5.366;2022-09-03T18:32:39;27.30;;;11.97;;
69485;SDS011;56677;51.710;5.366;2022-09-03T18:35:04;21.30;;;9.13;;
69485;SDS011;56677;51.710;5.366;2022-09-03T18:37:31;18.65;;;7.75;;
69485;SDS011;56677;51.710;5.366;2022-09-03T18:39:56;14.85;;;6.10;;
69485;SDS011;56677;51.710;5.366;2022-09-03T18:42:42;32.65;;;11.70;;
69485;SDS011;56677;51.710;5.366;2022-09-03T18:45:12;21.48;;;8.32;;
69485;SDS011;56677;51.710;5.366;2022-09-03T18:52:44;61.67;;;29.60;;
69485;SDS011;56677;51.710;5.366;2022-09-03T18:55:14;90.40;;;43.05;;
69485;SDS011;56677;51.710;5.366;2022-09-03T19:00:12;32.28;;;14.07;;